Bethany, Oklahoma
Current Conditions -  °F | °C
As of 11:59 AM on Friday 19 Dec 2014 (Local Time) from KPWA Reporting Station
Haze Haze  
Wind Chill: 34°   Ceiling: 600
Heat Index: 39°   Visibility: 3mi
Dew Point: 37°   Wind: 7mph
Humidity: 93%   Direction: 10°N
Pressure: 30.23"   Gusts: NA
Location:  35.51°N, 97.63°W
Report Text: KPWA 191759Z 01006KT 3SM BR OVC006 04/03 A3023 RMK AO2 SFC VIS 4 CIG 004V008
Loading
Personal Weather Stations






























Interactive Weather Map New forecast layout! Learn more

10-Day Weather Forecast

Advertisements
Track Severe Weather on mobile